createdAt,value
2018-12-03T00:00:06.402Z,10.20
2018-12-03T00:02:34.458Z,10.63
2018-12-03T00:05:02.499Z,10.95
2018-12-03T00:07:30.540Z,10.90
2018-12-03T00:09:58.575Z,11.18
2018-12-03T00:12:26.623Z,12.40
2018-12-03T00:14:54.651Z,12.25
2018-12-03T00:17:22.691Z,12.50
2018-12-03T00:19:50.732Z,13.00
2018-12-03T00:22:18.752Z,14.20
2018-12-03T00:24:46.804Z,15.40
2018-12-03T00:27:16.052Z,14.95
2018-12-03T00:29:50.492Z,16.63
2018-12-03T00:32:18.619Z,16.70
2018-12-03T00:34:46.669Z,18.32
2018-12-03T00:37:14.747Z,18.30
2018-12-03T00:39:42.800Z,18.43
2018-12-03T00:42:10.861Z,19.10
2018-12-03T00:44:38.934Z,20.35
2018-12-03T00:47:06.990Z,21.17
2018-12-03T00:49:35.049Z,21.10
2018-12-03T00:52:03.106Z,21.50
2018-12-03T00:54:31.163Z,23.18
2018-12-03T00:56:59.222Z,22.67
2018-12-03T00:59:27.269Z,22.45
2018-12-03T01:01:55.319Z,22.10
2018-12-03T01:04:23.406Z,23.70
2018-12-03T01:06:51.828Z,25.30
2018-12-03T01:09:19.902Z,24.85
2018-12-03T01:11:47.958Z,24.50
2018-12-03T01:14:16.006Z,24.77
2018-12-03T01:16:44.069Z,25.85
2018-12-03T01:19:12.118Z,25.23
2018-12-03T01:22:32.721Z,25.50
2018-12-03T01:25:13.220Z,25.27
2018-12-03T01:27:53.723Z,24.85
2018-12-03T01:30:33.960Z,23.80
2018-12-03T01:33:14.216Z,22.87
2018-12-03T01:35:54.588Z,23.60
2018-12-03T01:38:34.758Z,24.12
2018-12-03T01:41:15.183Z,23.38
2018-12-03T01:43:55.152Z,23.85
2018-12-03T01:46:35.740Z,23.83
2018-12-03T01:49:16.528Z,22.70
2018-12-03T01:51:57.172Z,23.40
2018-12-03T01:54:37.260Z,23.20
2018-12-03T01:57:17.687Z,24.27
2018-12-03T01:59:58.032Z,23.83
2018-12-03T02:02:38.015Z,23.38
2018-12-03T02:05:18.383Z,22.73
2018-12-03T02:07:58.753Z,23.50
2018-12-03T02:10:39.178Z,23.47
2018-12-03T02:13:19.379Z,22.20
2018-12-03T02:15:59.312Z,22.87
2018-12-03T02:18:39.987Z,22.40
2018-12-03T02:21:20.228Z,23.20
2018-12-03T02:24:00.570Z,21.55
2018-12-03T02:26:40.989Z,21.80
2018-12-03T02:29:21.799Z,22.82
2018-12-03T02:32:02.429Z,22.15
2018-12-03T02:34:43.072Z,22.32
2018-12-03T02:37:23.342Z,22.27
2018-12-03T02:40:03.605Z,22.15
2018-12-03T02:42:44.128Z,21.40
2018-12-03T02:45:24.333Z,22.77
2018-12-03T02:48:04.665Z,22.07
2018-12-03T02:50:44.969Z,22.87
2018-12-03T02:53:25.422Z,22.60
2018-12-03T02:56:06.294Z,22.15
2018-12-03T02:58:46.320Z,24.00
2018-12-03T03:01:26.728Z,23.20
2018-12-03T03:04:07.225Z,23.67
2018-12-03T03:06:47.760Z,23.73
2018-12-03T03:09:28.248Z,23.42
2018-12-03T03:12:08.159Z,24.55
2018-12-03T03:14:48.756Z,24.35
2018-12-03T03:17:29.190Z,24.57
2018-12-03T03:20:09.530Z,24.70
2018-12-03T03:22:49.770Z,26.30
2018-12-03T03:25:17.205Z,25.62
2018-12-03T03:28:04.394Z,25.85
2018-12-03T03:30:51.516Z,26.33
2018-12-03T03:33:38.718Z,24.57
2018-12-03T03:36:25.849Z,25.90
2018-12-03T03:39:12.956Z,25.47
2018-12-03T03:42:00.060Z,24.95
2018-12-03T03:44:47.168Z,24.23
2018-12-03T03:47:34.281Z,24.90
2018-12-03T03:50:21.640Z,24.87
2018-12-03T03:53:08.750Z,23.80
2018-12-03T03:55:55.867Z,23.35
2018-12-03T03:58:42.988Z,24.07
2018-12-03T04:01:30.109Z,24.25
2018-12-03T04:04:17.236Z,24.35
2018-12-03T04:07:04.590Z,24.52
2018-12-03T04:09:51.700Z,24.95
2018-12-03T04:12:38.816Z,25.97
2018-12-03T04:15:25.922Z,25.03
2018-12-03T04:18:13.020Z,24.43
2018-12-03T04:21:00.139Z,24.45
2018-12-03T04:23:47.488Z,24.60
2018-12-03T04:26:34.607Z,24.40
2018-12-03T04:29:21.713Z,23.42
2018-12-03T04:32:08.826Z,23.62
2018-12-03T04:34:55.943Z,23.90
2018-12-03T04:37:43.052Z,24.55
2018-12-03T04:40:30.160Z,23.27
2018-12-03T04:43:17.277Z,21.23
2018-12-03T04:46:04.469Z,21.80
2018-12-03T04:48:51.592Z,21.90
2018-12-03T04:51:38.689Z,22.87
2018-12-03T04:54:25.789Z,22.13
2018-12-03T04:57:12.917Z,23.50
2018-12-03T05:00:00.020Z,22.65
2018-12-03T05:02:47.132Z,23.05
2018-12-03T05:05:34.241Z,22.20
2018-12-03T05:08:21.347Z,22.70
2018-12-03T05:11:08.460Z,23.00
2018-12-03T05:13:55.573Z,22.60
2018-12-03T05:16:42.701Z,22.52
2018-12-03T05:19:29.803Z,23.13
2018-12-03T05:22:16.919Z,23.83
2018-12-03T05:25:04.091Z,23.67
2018-12-03T05:27:51.207Z,24.55
2018-12-03T05:30:38.323Z,22.62
2018-12-03T05:33:25.441Z,23.00
2018-12-03T05:36:12.557Z,22.05
2018-12-03T05:38:59.925Z,22.00
2018-12-03T05:41:47.051Z,21.02
2018-12-03T05:44:34.160Z,21.47
2018-12-03T05:47:21.269Z,21.12
2018-12-03T05:50:08.385Z,21.20
2018-12-03T05:52:55.495Z,21.23
2018-12-03T05:55:42.600Z,21.70
2018-12-03T05:58:29.724Z,21.00
2018-12-03T06:01:17.072Z,20.50
2018-12-03T06:04:04.572Z,19.60
2018-12-03T06:06:51.696Z,18.73
2018-12-03T06:09:38.816Z,20.57
2018-12-03T06:12:25.916Z,19.10
2018-12-03T06:15:13.040Z,19.65
2018-12-03T06:18:00.152Z,19.98
2018-12-03T06:20:47.296Z,20.52
2018-12-03T06:23:34.511Z,19.85
2018-12-03T06:26:01.944Z,20.20
2018-12-03T06:28:49.077Z,20.25
2018-12-03T06:31:16.519Z,18.75
2018-12-03T06:34:03.637Z,19.00
2018-12-03T06:36:50.759Z,19.40
2018-12-03T06:39:37.880Z,18.82
2018-12-03T06:42:24.975Z,19.05
2018-12-03T06:45:12.096Z,18.42
2018-12-03T06:47:59.471Z,18.47
2018-12-03T06:50:46.702Z,19.10
2018-12-03T06:53:34.056Z,18.80
2018-12-03T06:56:21.172Z,17.32
2018-12-03T06:59:08.284Z,18.35
2018-12-03T07:01:55.644Z,17.92
2018-12-03T07:04:35.700Z,17.45
2018-12-03T07:07:15.746Z,16.93
2018-12-03T07:09:55.804Z,15.60
2018-12-03T07:12:33.857Z,15.25
2018-12-03T07:15:20.980Z,15.38
2018-12-03T07:18:08.084Z,16.05
2018-12-03T07:20:55.210Z,16.05
2018-12-03T07:23:42.311Z,16.50
2018-12-03T07:26:29.453Z,15.60
2018-12-03T07:29:16.560Z,15.32
2018-12-03T07:32:03.686Z,14.40
2018-12-03T07:34:50.801Z,13.95
2018-12-03T07:37:37.916Z,13.35
2018-12-03T07:40:25.037Z,12.10
2018-12-03T07:43:12.148Z,10.60
2018-12-03T07:45:59.281Z,10.60
2018-12-03T07:48:46.408Z,11.20
2018-12-03T07:51:33.512Z,10.35
2018-12-03T07:54:20.630Z,9.45
2018-12-03T07:57:07.736Z,9.78
2018-12-03T07:59:54.868Z,9.75
2018-12-03T08:02:41.976Z,9.53
2018-12-03T08:05:29.082Z,9.23
2018-12-03T08:08:16.296Z,8.60
2018-12-03T08:11:03.413Z,9.30
2018-12-03T08:13:50.796Z,9.40
2018-12-03T08:16:37.928Z,8.93
2018-12-03T08:19:26.928Z,9.40
2018-12-03T08:22:14.042Z,9.90
2018-12-03T08:25:01.425Z,10.08
2018-12-03T08:27:48.537Z,9.03
2018-12-03T08:30:35.656Z,9.70
2018-12-03T08:33:22.766Z,10.35
2018-12-03T08:36:09.886Z,10.10
2018-12-03T08:38:56.988Z,9.87
2018-12-03T08:41:44.102Z,10.10
2018-12-03T08:44:31.228Z,12.03
2018-12-03T08:47:18.350Z,10.90
2018-12-03T08:49:45.784Z,11.10
2018-12-03T08:52:32.903Z,10.90
2018-12-03T08:55:00.332Z,12.40
2018-12-03T08:57:47.457Z,11.48
2018-12-03T09:00:34.577Z,10.50
2018-12-03T09:03:02.011Z,10.00
2018-12-03T09:05:49.125Z,10.38
2018-12-03T09:08:16.559Z,9.50
2018-12-03T09:11:03.756Z,10.00
2018-12-03T09:16:23.976Z,10.13
2018-12-03T09:19:11.095Z,9.50
2018-12-03T09:21:58.453Z,10.10
2018-12-03T09:24:45.567Z,10.45
2018-12-03T09:27:32.672Z,9.88
2018-12-03T09:30:19.976Z,10.70
2018-12-03T09:33:07.085Z,11.73
2018-12-03T09:35:54.200Z,11.15
2018-12-03T09:39:02.611Z,10.20
2018-12-03T09:41:49.731Z,10.00
2018-12-03T09:44:36.849Z,8.90
2018-12-03T09:47:23.998Z,7.40
2018-12-03T09:50:32.405Z,7.53
2018-12-03T09:53:19.496Z,6.97
2018-12-03T09:56:06.621Z,8.40
2018-12-03T09:58:53.735Z,5.97
2018-12-03T10:01:40.845Z,6.27
2018-12-03T10:04:29.174Z,6.40
2018-12-03T10:07:16.984Z,6.28
2018-12-03T10:10:25.397Z,5.03
2018-12-03T10:13:12.500Z,5.60
2018-12-03T10:15:59.612Z,5.00
2018-12-03T10:18:46.727Z,5.10
2018-12-03T10:21:33.836Z,5.22
2018-12-03T10:24:20.953Z,5.58
2018-12-03T10:27:08.069Z,5.42
2018-12-03T10:29:55.199Z,5.08
2018-12-03T10:32:42.311Z,5.45
2018-12-03T10:35:50.749Z,5.70
2018-12-03T10:38:38.224Z,4.97
2018-12-03T10:41:25.371Z,4.80
2018-12-03T10:44:33.807Z,5.33
2018-12-03T10:47:20.907Z,4.77
2018-12-03T10:50:29.320Z,5.60
2018-12-03T10:52:56.781Z,4.85
2018-12-03T10:55:43.885Z,5.30
2018-12-03T10:58:52.308Z,6.50
2018-12-03T11:01:58.857Z,5.47
2018-12-03T11:07:54.504Z,6.62
2018-12-03T11:10:41.644Z,7.80
2018-12-03T11:13:28.789Z,6.30
2018-12-03T11:16:37.220Z,9.13
2018-12-03T11:19:24.309Z,7.30
2018-12-03T11:22:11.430Z,7.10
2018-12-03T11:24:58.545Z,7.10
2018-12-03T11:27:46.237Z,7.10
2018-12-03T11:30:33.354Z,6.20
2018-12-03T11:33:40.584Z,7.00
2018-12-03T11:36:27.691Z,6.58
2018-12-03T11:39:15.077Z,7.33
2018-12-03T11:42:02.228Z,6.85
2018-12-03T11:44:49.345Z,6.20
2018-12-03T11:47:36.458Z,6.27
2018-12-03T11:50:24.140Z,6.00
2018-12-03T11:53:11.273Z,5.42
2018-12-03T11:55:58.397Z,5.28
2018-12-03T11:58:45.521Z,6.22
2018-12-03T12:01:32.633Z,5.30
2018-12-03T12:04:19.760Z,6.30
2018-12-03T12:07:06.862Z,6.35
2018-12-03T12:09:53.977Z,7.03
2018-12-03T12:12:41.108Z,6.50
2018-12-03T12:15:28.236Z,8.05
2018-12-03T12:18:15.348Z,7.60
2018-12-03T12:21:02.446Z,6.70
2018-12-03T12:23:49.568Z,6.00
2018-12-03T12:26:36.665Z,6.40
2018-12-03T12:29:23.792Z,6.40
2018-12-03T12:32:10.902Z,6.17
2018-12-03T12:34:58.047Z,6.80
2018-12-03T12:37:45.152Z,6.28
2018-12-03T12:40:12.596Z,6.10
2018-12-03T12:42:59.704Z,7.57
2018-12-03T12:45:46.828Z,6.75
2018-12-03T12:48:33.935Z,6.87
2018-12-03T12:51:21.044Z,6.87
2018-12-03T12:54:27.605Z,6.40
2018-12-03T12:57:15.320Z,6.50
2018-12-03T13:00:02.436Z,6.10
2018-12-03T13:02:49.555Z,6.00
2018-12-03T13:05:36.705Z,6.22
2018-12-03T13:08:23.805Z,6.62
2018-12-03T13:11:10.935Z,6.92
2018-12-03T13:13:58.065Z,6.65
2018-12-03T13:16:45.180Z,6.58
2018-12-03T13:19:32.290Z,6.85
2018-12-03T13:25:33.751Z,7.10
2018-12-03T13:28:20.851Z,6.47
2018-12-03T13:31:07.967Z,6.25
2018-12-03T13:33:55.075Z,5.97
2018-12-03T13:36:42.198Z,6.30
2018-12-03T13:39:29.368Z,6.17
2018-12-03T13:42:16.490Z,6.37
2018-12-03T13:45:24.897Z,6.20
2018-12-03T13:48:12.009Z,7.60
2018-12-03T13:50:59.125Z,7.15
2018-12-03T13:56:54.450Z,6.33
2018-12-03T13:59:41.545Z,6.40
2018-12-03T14:02:28.668Z,6.08
2018-12-03T14:05:15.788Z,6.30
2018-12-03T14:08:02.897Z,6.47
2018-12-03T14:10:50.084Z,6.10
2018-12-03T14:13:37.190Z,6.00
2018-12-03T14:16:24.326Z,6.10
2018-12-03T14:19:11.412Z,7.00
2018-12-03T14:21:58.540Z,6.97
2018-12-03T14:24:45.627Z,7.67
2018-12-03T14:27:33.078Z,7.60
2018-12-03T14:30:20.179Z,8.10
2018-12-03T14:33:07.305Z,8.00
2018-12-03T14:35:54.424Z,7.85
2018-12-03T14:38:41.527Z,8.53
2018-12-03T14:41:28.635Z,8.35
2018-12-03T14:44:15.752Z,8.55
2018-12-03T14:47:03.193Z,8.05
2018-12-03T14:49:50.311Z,8.05
2018-12-03T14:52:37.499Z,7.97
2018-12-03T14:55:24.608Z,8.48
2018-12-03T14:58:11.746Z,8.15
2018-12-03T15:00:58.851Z,7.85
2018-12-03T15:03:45.987Z,8.10
2018-12-03T15:06:33.088Z,6.80
2018-12-03T15:09:20.217Z,7.70
2018-12-03T15:12:07.309Z,8.28
2018-12-03T15:14:54.430Z,8.38
2018-12-03T15:17:21.855Z,8.38
2018-12-03T15:20:08.963Z,7.83
2018-12-03T15:22:56.076Z,8.85
2018-12-03T15:25:43.176Z,8.45
2018-12-03T15:28:30.316Z,9.43
2018-12-03T15:31:17.433Z,8.95
2018-12-03T15:33:44.867Z,8.25
2018-12-03T15:36:31.978Z,8.88
2018-12-03T15:39:19.416Z,9.33
2018-12-03T15:42:06.557Z,9.18
2018-12-03T15:44:53.776Z,9.20
2018-12-03T15:47:40.893Z,10.23
2018-12-03T15:50:28.005Z,9.30
2018-12-03T15:53:15.115Z,9.08
2018-12-03T15:56:02.240Z,9.35
2018-12-03T15:58:49.348Z,10.10
2018-12-03T16:01:57.756Z,10.13
2018-12-03T16:04:44.869Z,9.38
2018-12-03T16:07:31.990Z,10.98
2018-12-03T16:10:19.108Z,10.38
2018-12-03T16:13:07.065Z,11.38
2018-12-03T16:15:55.255Z,11.60
2018-12-03T16:18:42.724Z,11.85
2018-12-03T16:21:29.845Z,11.80
2018-12-03T16:24:16.969Z,12.03
2018-12-03T16:27:04.076Z,11.37
2018-12-03T16:29:51.192Z,12.73
2018-12-03T16:32:38.303Z,12.13
2018-12-03T16:35:25.423Z,12.43
2018-12-03T16:38:12.533Z,11.68
2018-12-03T16:40:59.639Z,12.23
2018-12-03T16:43:46.755Z,11.53
2018-12-03T16:46:33.877Z,11.83
2018-12-03T16:49:20.992Z,12.37
2018-12-03T16:52:08.246Z,12.40
2018-12-03T16:54:55.364Z,12.60
2018-12-03T16:57:42.483Z,12.03
2018-12-03T17:00:29.588Z,11.80
2018-12-03T17:03:16.743Z,12.40
2018-12-03T17:06:03.890Z,11.95
2018-12-03T17:08:51.010Z,11.40
2018-12-03T17:11:38.128Z,12.67
2018-12-03T17:14:25.241Z,12.03
2018-12-03T17:16:52.692Z,11.88
2018-12-03T17:19:39.819Z,11.80
2018-12-03T17:22:27.124Z,12.70
2018-12-03T17:25:14.247Z,13.13
2018-12-03T17:28:01.373Z,12.97
2018-12-03T17:30:48.484Z,12.98
2018-12-03T17:33:15.927Z,12.60
2018-12-03T17:36:03.069Z,12.00
2018-12-03T17:38:50.183Z,13.60
2018-12-03T17:41:37.636Z,12.60
2018-12-03T17:44:24.756Z,13.20
2018-12-03T17:47:11.876Z,14.98
2018-12-03T17:49:52.459Z,13.53
2018-12-03T17:52:33.154Z,12.00
2018-12-03T17:55:13.454Z,13.05
2018-12-03T17:57:54.080Z,12.75
2018-12-03T18:00:34.328Z,13.50
2018-12-03T18:03:14.494Z,13.38
2018-12-03T18:05:55.276Z,13.85
2018-12-03T18:08:35.305Z,13.13
2018-12-03T18:11:15.804Z,13.58
2018-12-03T18:13:56.464Z,13.55
2018-12-03T18:16:37.282Z,13.08
2018-12-03T18:19:17.680Z,12.30
2018-12-03T18:21:58.566Z,11.20
2018-12-03T18:24:38.612Z,12.05
2018-12-03T18:27:19.042Z,15.47
2018-12-03T18:29:58.946Z,24.40
2018-12-03T18:32:38.898Z,20.60
2018-12-03T18:35:19.596Z,19.62
2018-12-03T18:37:59.691Z,18.73
2018-12-03T18:40:39.932Z,14.85
2018-12-03T18:43:20.808Z,13.80
2018-12-03T18:45:58.987Z,13.65
2018-12-03T18:48:46.133Z,13.95
2018-12-03T18:51:33.265Z,16.70
2018-12-03T18:54:20.367Z,15.65
2018-12-03T18:57:07.479Z,13.75
2018-12-03T18:59:34.907Z,15.05
2018-12-03T19:02:22.376Z,16.55
2018-12-03T19:04:50.140Z,15.10
2018-12-03T19:07:37.253Z,14.35
2018-12-03T19:10:45.652Z,13.22
2018-12-03T19:13:32.769Z,14.87
2018-12-03T19:16:00.570Z,13.32
2018-12-03T19:18:47.976Z,11.08
2018-12-03T19:21:35.349Z,11.00
2018-12-03T19:24:22.456Z,10.72
2018-12-03T19:27:09.578Z,12.13
2018-12-03T19:29:56.681Z,11.65
2018-12-03T19:32:43.812Z,10.63
2018-12-03T19:35:30.919Z,12.10
2018-12-03T19:38:18.032Z,10.75
2018-12-03T19:41:05.512Z,11.60
2018-12-03T19:43:52.636Z,10.68
2018-12-03T19:46:39.744Z,10.93
2018-12-03T19:49:26.851Z,12.53
2018-12-03T19:51:54.643Z,13.00
2018-12-03T19:54:41.748Z,13.38
2018-12-03T19:57:28.884Z,13.88
2018-12-03T20:00:16.001Z,15.35
2018-12-03T20:03:03.116Z,16.53
2018-12-03T20:05:50.324Z,18.32
2018-12-03T20:08:37.431Z,17.20
2018-12-03T20:11:24.545Z,19.23
2018-12-03T20:14:11.672Z,20.97
2018-12-03T20:16:58.776Z,19.35
2018-12-03T20:19:45.905Z,19.82
2018-12-03T20:22:33.011Z,19.33
2018-12-03T20:25:20.222Z,20.02
2018-12-03T20:28:07.693Z,17.10
2018-12-03T20:31:16.095Z,15.70
2018-12-03T20:34:24.509Z,16.00
2018-12-03T20:37:32.920Z,15.33
2018-12-03T20:40:20.053Z,15.93
2018-12-03T20:43:07.160Z,15.20
2018-12-03T20:45:56.165Z,14.53
2018-12-03T20:48:43.276Z,15.40
2018-12-03T20:51:30.399Z,15.83
2018-12-03T20:54:17.523Z,15.95
2018-12-03T20:57:04.652Z,16.55
2018-12-03T20:59:51.783Z,18.98
2018-12-03T21:02:39.134Z,18.50
2018-12-03T21:05:26.260Z,19.07
2018-12-03T21:08:13.364Z,18.48
2018-12-03T21:11:00.495Z,18.75
2018-12-03T21:13:27.931Z,19.20
2018-12-03T21:16:15.048Z,19.25
2018-12-03T21:19:02.156Z,19.30
2018-12-03T21:21:49.280Z,16.80
2018-12-03T21:24:55.982Z,17.35
2018-12-03T21:27:43.336Z,16.15
2018-12-03T21:30:30.756Z,17.23
2018-12-03T21:33:17.936Z,18.30
2018-12-03T21:36:05.392Z,16.17
2018-12-03T21:38:52.490Z,9.90
2018-12-03T21:41:39.906Z,10.30
2018-12-03T21:44:27.014Z,7.95
2018-12-03T21:47:14.127Z,5.62
2018-12-03T21:49:41.588Z,4.30
2018-12-03T21:52:28.685Z,4.90
2018-12-03T21:55:15.800Z,5.03
2018-12-03T21:58:02.906Z,5.47
2018-12-03T22:00:50.029Z,5.80
2018-12-03T22:03:37.125Z,6.40
2018-12-03T22:06:24.248Z,7.70
2018-12-03T22:09:11.348Z,3.45
2018-12-03T22:11:59.036Z,3.10
2018-12-03T22:14:46.136Z,2.70
2018-12-03T22:17:33.238Z,3.00
2018-12-03T22:23:26.655Z,2.85
2018-12-03T22:26:13.761Z,2.50
2018-12-03T22:29:00.865Z,2.75
2018-12-03T22:31:47.977Z,2.70
2018-12-03T22:34:35.083Z,2.52
2018-12-03T22:37:22.218Z,2.60
2018-12-03T22:40:09.333Z,2.52
2018-12-03T22:42:56.428Z,2.00
2018-12-03T22:45:43.573Z,2.10
2018-12-03T22:48:30.661Z,1.90
2018-12-03T22:51:18.018Z,2.40
2018-12-03T22:54:05.454Z,2.00
2018-12-03T22:56:52.577Z,2.45
2018-12-03T22:59:39.672Z,2.00
2018-12-03T23:02:26.784Z,2.00
2018-12-03T23:05:13.875Z,2.05
2018-12-03T23:08:00.989Z,2.50
2018-12-03T23:10:48.097Z,2.05
2018-12-03T23:13:15.516Z,1.98
2018-12-03T23:16:02.621Z,2.05
2018-12-03T23:18:49.728Z,2.52
2018-12-03T23:21:36.843Z,2.55
2018-12-03T23:24:24.184Z,2.62
2018-12-03T23:27:11.609Z,2.10
2018-12-03T23:29:58.707Z,2.00
2018-12-03T23:32:45.810Z,1.92
2018-12-03T23:35:33.145Z,2.20
2018-12-03T23:38:21.907Z,2.80
2018-12-03T23:41:09.018Z,2.50
2018-12-03T23:43:56.123Z,1.95
2018-12-03T23:46:43.218Z,1.98
2018-12-03T23:49:30.332Z,2.00
2018-12-03T23:52:17.431Z,2.25
2018-12-03T23:55:04.533Z,3.10
2018-12-03T23:57:51.643Z,3.80
